createdAt,value
2022-09-17T00:02:16.090Z,5.40
2022-09-17T00:07:19.421Z,4.27
2022-09-17T00:12:22.649Z,5.33
2022-09-17T00:17:26.147Z,3.30
2022-09-17T00:22:29.695Z,4.10
2022-09-17T00:27:33.596Z,4.63
2022-09-17T00:32:37.050Z,3.63
2022-09-17T00:37:40.777Z,7.37
2022-09-17T00:42:45.864Z,5.60
2022-09-17T00:47:59.319Z,5.43
2022-09-17T00:53:07.959Z,4.20
2022-09-17T00:58:13.769Z,4.30
2022-09-17T01:03:17.217Z,4.43
2022-09-17T01:08:49.542Z,6.13
2022-09-17T01:14:07.130Z,3.63
2022-09-17T01:19:50.259Z,3.50
2022-09-17T01:25:38.028Z,6.40
2022-09-17T01:30:53.149Z,7.10
2022-09-17T01:36:34.781Z,7.33
2022-09-17T01:42:05.439Z,3.93
2022-09-17T01:47:09.079Z,5.70
2022-09-17T01:52:15.438Z,5.00
2022-09-17T01:57:28.401Z,2.63
2022-09-17T02:02:41.308Z,5.93
2022-09-17T02:07:51.138Z,6.53
2022-09-17T02:12:59.680Z,2.80
2022-09-17T02:18:30.579Z,4.67
2022-09-17T02:23:40.228Z,5.23
2022-09-17T02:28:56.039Z,5.40
2022-09-17T02:34:03.618Z,4.40
2022-09-17T02:39:07.208Z,4.40
2022-09-17T02:44:28.235Z,4.93
2022-09-17T02:49:59.549Z,4.40
2022-09-17T02:55:21.254Z,4.33
2022-09-17T03:00:25.206Z,3.43
2022-09-17T03:05:31.861Z,5.27
2022-09-17T03:10:35.279Z,4.00
2022-09-17T03:15:38.612Z,3.87
2022-09-17T03:20:42.210Z,3.53
2022-09-17T03:25:47.251Z,3.77
2022-09-17T03:30:50.647Z,5.13
2022-09-17T03:35:53.733Z,3.93
2022-09-17T03:41:05.801Z,5.50
2022-09-17T03:46:09.226Z,4.63
2022-09-17T03:51:13.252Z,2.93
2022-09-17T03:56:19.569Z,3.17
2022-09-17T04:01:23.419Z,3.73
2022-09-17T04:06:26.754Z,6.77
2022-09-17T04:11:30.080Z,3.07
2022-09-17T04:16:33.612Z,2.80
2022-09-17T04:21:36.940Z,2.87
2022-09-17T04:26:41.788Z,2.93
2022-09-17T04:31:45.232Z,2.97
2022-09-17T04:36:48.456Z,5.80
2022-09-17T04:41:52.849Z,7.27
2022-09-17T04:46:56.902Z,3.10
2022-09-17T04:52:00.459Z,4.87
2022-09-17T04:57:05.424Z,3.57
2022-09-17T05:02:08.829Z,2.50
2022-09-17T05:07:13.977Z,4.17
2022-09-17T05:12:17.720Z,4.87
2022-09-17T05:17:21.948Z,2.43
2022-09-17T05:22:25.722Z,3.60
2022-09-17T05:27:29.439Z,3.03
2022-09-17T05:32:36.382Z,6.30
2022-09-17T05:37:40.715Z,4.67
2022-09-17T05:42:44.668Z,3.80
2022-09-17T05:47:48.253Z,3.20
2022-09-17T05:52:52.440Z,1.90
2022-09-17T05:57:55.552Z,8.30
2022-09-17T06:02:58.836Z,2.77
2022-09-17T06:08:02.538Z,3.37
2022-09-17T06:13:07.227Z,4.53
2022-09-17T06:18:10.320Z,3.53
2022-09-17T06:23:15.990Z,1.47
2022-09-17T06:28:19.835Z,2.03
2022-09-17T06:33:24.218Z,2.87
2022-09-17T06:38:29.337Z,2.53
2022-09-17T06:43:38.126Z,4.10
2022-09-17T06:48:43.887Z,2.80
2022-09-17T06:53:47.465Z,4.10
2022-09-17T06:58:50.968Z,2.80
2022-09-17T07:03:54.476Z,3.07
2022-09-17T07:08:59.647Z,1.80
2022-09-17T07:14:06.179Z,2.63
2022-09-17T07:19:17.259Z,2.23
2022-09-17T07:24:26.618Z,3.50
2022-09-17T07:29:37.239Z,4.70
2022-09-17T07:34:42.143Z,3.37
2022-09-17T07:39:47.947Z,3.43
2022-09-17T07:44:57.478Z,4.43
2022-09-17T07:50:08.358Z,4.37
2022-09-17T08:00:40.700Z,4.83
2022-09-17T08:05:52.291Z,5.10
2022-09-17T08:11:05.598Z,3.13
2022-09-17T08:16:18.746Z,5.30
2022-09-17T08:21:24.497Z,6.93
2022-09-17T08:26:30.322Z,6.17
2022-09-17T08:31:35.717Z,3.67
2022-09-17T08:36:40.158Z,3.77
2022-09-17T08:42:13.119Z,6.57
2022-09-17T08:47:40.170Z,5.83
2022-09-17T08:53:07.349Z,4.87
2022-09-17T08:58:29.999Z,3.23
2022-09-17T09:04:06.179Z,3.80
2022-09-17T09:09:15.886Z,4.60
2022-09-17T09:14:28.719Z,3.27
2022-09-17T09:19:41.672Z,3.27
2022-09-17T09:25:10.309Z,3.60
2022-09-17T09:30:16.984Z,7.10
2022-09-17T09:35:30.270Z,2.97
2022-09-17T09:40:58.050Z,5.10
2022-09-17T09:46:29.935Z,2.83
2022-09-17T09:52:05.290Z,3.70
2022-09-17T09:57:25.020Z,5.73
2022-09-17T10:02:29.041Z,2.77
2022-09-17T10:07:45.092Z,4.43
2022-09-17T10:12:48.963Z,5.23
2022-09-17T10:18:14.341Z,4.03
2022-09-17T10:23:18.800Z,2.93
2022-09-17T10:28:40.228Z,3.77
2022-09-17T10:34:03.388Z,4.37
2022-09-17T10:39:20.709Z,2.77
2022-09-17T10:44:26.207Z,4.93
2022-09-17T10:50:03.760Z,3.20
2022-09-17T10:55:09.823Z,2.63
2022-09-17T11:00:22.331Z,2.87
2022-09-17T11:06:00.479Z,2.30
2022-09-17T11:11:38.059Z,5.20
2022-09-17T11:17:00.706Z,2.83
2022-09-17T11:22:41.800Z,4.50
2022-09-17T11:27:53.211Z,2.80
2022-09-17T11:33:16.039Z,2.10
2022-09-17T11:38:40.199Z,2.60
2022-09-17T11:43:58.498Z,4.00
2022-09-17T11:49:19.484Z,6.07
2022-09-17T11:54:31.818Z,3.25
2022-09-17T11:59:48.154Z,3.17
2022-09-17T12:04:57.686Z,1.95
2022-09-17T12:10:17.839Z,1.92
2022-09-17T12:15:27.589Z,2.75
2022-09-17T12:20:40.797Z,2.10
2022-09-17T12:25:59.890Z,1.67
2022-09-17T12:31:29.547Z,1.90
2022-09-17T12:36:53.609Z,0.88
2022-09-17T12:42:34.046Z,1.42
2022-09-17T12:47:56.807Z,2.67
2022-09-17T12:53:30.640Z,3.30
2022-09-17T12:59:12.330Z,1.80
2022-09-17T13:05:00.358Z,1.90
2022-09-17T13:10:24.914Z,1.83
2022-09-17T13:16:14.414Z,2.33
2022-09-17T13:21:44.419Z,2.97
2022-09-17T13:26:48.759Z,1.80
2022-09-17T13:31:53.229Z,2.97
2022-09-17T13:36:59.144Z,1.52
2022-09-17T13:42:17.850Z,2.97
2022-09-17T13:47:33.969Z,3.10
2022-09-17T13:52:46.764Z,6.38
2022-09-17T13:57:56.467Z,4.85
2022-09-17T14:03:32.067Z,1.73
2022-09-17T14:08:52.759Z,3.42
2022-09-17T14:13:57.529Z,2.75
2022-09-17T14:19:16.987Z,1.13
2022-09-17T14:24:40.525Z,3.33
2022-09-17T14:30:08.619Z,1.00
2022-09-17T14:35:23.499Z,2.23
2022-09-17T14:40:28.322Z,3.03
2022-09-17T14:45:41.436Z,1.63
2022-09-17T14:50:46.038Z,3.65
2022-09-17T14:55:52.957Z,2.17
2022-09-17T15:00:58.108Z,2.17
2022-09-17T15:06:02.119Z,1.90
2022-09-17T15:11:12.617Z,1.92
2022-09-17T15:16:23.313Z,2.47
2022-09-17T15:21:46.078Z,1.83
2022-09-17T15:26:54.980Z,2.22
2022-09-17T15:32:10.470Z,1.95
2022-09-17T15:37:26.445Z,1.88
2022-09-17T15:42:36.220Z,1.30
2022-09-17T15:47:51.829Z,1.43
2022-09-17T15:53:10.690Z,0.90
2022-09-17T15:58:37.246Z,1.33
2022-09-17T16:03:41.189Z,3.30
2022-09-17T16:08:49.899Z,2.93
2022-09-17T16:13:55.042Z,1.03
2022-09-17T16:18:59.183Z,1.73
2022-09-17T16:24:04.649Z,5.60
2022-09-17T16:29:14.099Z,2.07
2022-09-17T16:34:17.559Z,4.67
2022-09-17T16:39:21.570Z,2.53
2022-09-17T16:44:25.320Z,4.63
2022-09-17T16:49:29.080Z,2.80
2022-09-17T16:54:33.259Z,2.77
2022-09-17T16:59:39.004Z,5.10
2022-09-17T17:04:45.058Z,5.03
2022-09-17T17:09:50.339Z,2.83
2022-09-17T17:14:54.212Z,4.47
2022-09-17T17:19:57.452Z,3.13
2022-09-17T17:25:00.874Z,6.67
2022-09-17T17:30:07.213Z,4.63
2022-09-17T17:35:11.010Z,4.50
2022-09-17T17:40:15.631Z,4.03
2022-09-17T17:45:22.092Z,5.73
2022-09-17T17:50:25.471Z,6.17
2022-09-17T17:55:30.232Z,6.57
2022-09-17T18:00:35.618Z,4.67
2022-09-17T18:05:40.668Z,5.37
2022-09-17T18:10:51.937Z,5.60
2022-09-17T18:15:57.850Z,8.20
2022-09-17T18:21:11.803Z,5.97
2022-09-17T18:26:17.309Z,7.90
2022-09-17T18:31:31.596Z,5.17
2022-09-17T18:36:36.429Z,4.63
2022-09-17T18:41:41.569Z,8.10
2022-09-17T18:46:48.287Z,7.73
2022-09-17T18:51:52.089Z,7.80
2022-09-17T18:56:56.490Z,5.73
2022-09-17T19:02:02.039Z,5.17
2022-09-17T19:07:07.829Z,6.97
2022-09-17T19:12:11.731Z,8.47
2022-09-17T19:17:16.111Z,8.27
2022-09-17T19:22:19.450Z,6.23
2022-09-17T19:27:23.548Z,8.93
2022-09-17T19:32:28.810Z,5.77
2022-09-17T19:37:32.559Z,6.10
2022-09-17T19:42:36.337Z,8.50
2022-09-17T19:47:40.651Z,10.27
2022-09-17T19:52:44.940Z,5.60
2022-09-17T19:57:49.369Z,10.47
2022-09-17T20:02:52.878Z,8.47
2022-09-17T20:07:56.663Z,8.63
2022-09-17T20:12:59.932Z,7.97
2022-09-17T20:18:04.470Z,7.57
2022-09-17T20:23:08.291Z,6.27
2022-09-17T20:28:11.569Z,7.23
2022-09-17T20:33:15.791Z,5.70
2022-09-17T20:39:09.502Z,9.17
2022-09-17T20:43:45.330Z,7.30
2022-09-17T20:48:49.957Z,7.63
2022-09-17T20:53:53.928Z,10.43
2022-09-17T20:59:04.199Z,6.33
2022-09-17T21:04:09.400Z,5.70
2022-09-17T21:09:16.291Z,5.73
2022-09-17T21:14:21.221Z,6.37
2022-09-17T21:19:26.484Z,6.93
2022-09-17T21:24:30.315Z,9.17
2022-09-17T21:29:33.673Z,7.83
2022-09-17T21:34:39.853Z,7.47
2022-09-17T21:39:43.350Z,7.20
2022-09-17T21:44:46.875Z,6.83
2022-09-17T21:49:50.450Z,5.13
2022-09-17T21:54:55.752Z,9.30
2022-09-17T21:59:59.614Z,6.90
2022-09-17T22:05:03.204Z,7.60
2022-09-17T22:10:07.368Z,9.17
2022-09-17T22:15:12.109Z,8.00
2022-09-17T22:20:15.849Z,7.93
2022-09-17T22:25:19.976Z,8.70
2022-09-17T22:30:23.708Z,7.47
2022-09-17T22:35:27.512Z,8.10
2022-09-17T22:40:31.235Z,7.70
2022-09-17T22:45:34.851Z,6.67
2022-09-17T22:50:38.531Z,8.27
2022-09-17T22:55:42.803Z,9.97
2022-09-17T23:00:46.995Z,9.03
2022-09-17T23:05:51.070Z,6.23
2022-09-17T23:10:55.351Z,5.13
2022-09-17T23:16:07.726Z,4.73
2022-09-17T23:21:17.751Z,6.50
2022-09-17T23:26:26.309Z,6.20
2022-09-17T23:31:30.590Z,9.03
2022-09-17T23:36:37.153Z,8.03
2022-09-17T23:41:44.173Z,6.30
2022-09-17T23:46:48.972Z,5.37
2022-09-17T23:51:53.121Z,5.30
2022-09-17T23:56:56.570Z,8.97
